Time;durP1;ratioP1;P1;durP2;ratioP2;P2;SDS_P1;SDS_P2;PMS_P1;PMS_P2;Temp;Humidity;BMP_temperature;BMP_pressure;BME280_temperature;BME280_humidity;BME280_pressure;Samples;Min_cycle;Max_cycle;Signal;HPM_P1;HPM_P2
2023/10/29 00:02:36;;;;;;;3.10;1.55;;;;;;;12.36;100.00;99030.06;5101994;28;20074;-66
2023/10/29 00:05:24;;;;;;;1.63;1.50;;;;;;;12.40;100.00;99023.94;5099936;28;20036;-66
2023/10/29 00:08:12;;;;;;;2.78;1.45;;;;;;;12.42;100.00;99008.81;5084285;28;20134;-67
2023/10/29 00:11:00;;;;;;;3.22;1.42;;;;;;;12.43;100.00;99012.34;5114315;28;20051;-66
2023/10/29 00:13:48;;;;;;;2.85;1.55;;;;;;;12.44;100.00;99008.50;5083883;28;20514;-68
2023/10/29 00:16:36;;;;;;;1.60;1.20;;;;;;;12.44;100.00;99009.31;5094073;28;20411;-67
2023/10/29 00:19:24;;;;;;;2.05;1.35;;;;;;;12.46;100.00;99015.25;5094731;28;20547;-66
2023/10/29 00:22:12;;;;;;;2.70;1.45;;;;;;;12.47;100.00;98995.00;5088027;28;20043;-66
2023/10/29 00:25:00;;;;;;;3.90;1.95;;;;;;;12.48;100.00;98982.13;5112846;28;20139;-66
2023/10/29 00:27:48;;;;;;;2.97;1.60;;;;;;;12.49;100.00;98984.53;5098056;28;20058;-67
2023/10/29 00:30:37;;;;;;;4.97;1.65;;;;;;;12.51;100.00;98970.56;5098379;28;20164;-67
2023/10/29 00:33:25;;;;;;;2.40;1.10;;;;;;;12.51;100.00;98954.19;5099024;28;20040;-67
2023/10/29 00:36:13;;;;;;;2.90;1.42;;;;;;;12.51;100.00;98932.34;5079228;28;20044;-66
2023/10/29 00:39:01;;;;;;;2.72;1.58;;;;;;;12.50;100.00;98939.69;5077970;28;20488;-67
2023/10/29 00:41:49;;;;;;;4.13;1.80;;;;;;;12.50;100.00;98944.38;5094112;28;20102;-67
2023/10/29 00:44:37;;;;;;;2.60;1.70;;;;;;;12.50;100.00;98938.91;5112648;28;20411;-66
2023/10/29 00:47:26;;;;;;;3.50;1.80;;;;;;;12.49;100.00;98954.50;5077170;28;20044;-67
2023/10/29 00:50:14;;;;;;;6.32;1.73;;;;;;;12.51;100.00;98956.91;5099421;28;20389;-66
2023/10/29 00:53:02;;;;;;;3.83;1.50;;;;;;;12.50;100.00;98942.44;5097097;28;20174;-66
2023/10/29 00:55:51;;;;;;;4.65;1.67;;;;;;;12.50;100.00;98942.44;5113324;28;20051;-67
2023/10/29 00:58:40;;;;;;;4.35;1.80;;;;;;;12.52;100.00;98955.78;5098322;28;20065;-66
2023/10/29 01:01:28;;;;;;;3.22;1.80;;;;;;;12.52;100.00;98944.84;5112755;28;20043;-67
2023/10/29 01:04:16;;;;;;;5.60;2.00;;;;;;;12.53;100.00;98936.34;5069331;28;20044;-66
2023/10/29 01:07:05;;;;;;;3.47;1.60;;;;;;;12.54;100.00;98927.00;5111279;28;20112;-67
2023/10/29 01:09:53;;;;;;;3.03;1.48;;;;;;;12.55;100.00;98923.16;5114331;27;20118;-67
2023/10/29 01:12:41;;;;;;;7.38;1.70;;;;;;;12.57;100.00;98931.00;5068372;28;20551;-67
2023/10/29 01:15:29;;;;;;;3.90;1.50;;;;;;;12.60;100.00;98941.28;5079601;28;20039;-67
2023/10/29 01:18:17;;;;;;;2.33;1.52;;;;;;;12.61;100.00;98926.50;5112465;28;20488;-67
2023/10/29 01:21:08;;;;;;;2.90;1.70;;;;;;;12.63;100.00;98907.84;5096140;28;20055;-67
2023/10/29 01:23:56;;;;;;;3.05;1.90;;;;;;;12.65;100.00;98894.66;5097735;28;20449;-67
2023/10/29 01:26:45;;;;;;;4.00;1.65;;;;;;;12.66;100.00;98895.47;5093307;28;20046;-66
2023/10/29 01:29:33;;;;;;;2.40;1.63;;;;;;;12.68;100.00;98882.28;5067620;28;20054;-67
2023/10/29 01:32:21;;;;;;;3.97;1.60;;;;;;;12.68;100.00;98885.81;5111925;28;20047;-67
2023/10/29 01:35:09;;;;;;;3.80;1.60;;;;;;;12.69;100.00;98890.13;5110301;28;20070;-67
2023/10/29 01:37:57;;;;;;;5.68;1.80;;;;;;;12.71;100.00;98898.78;5097856;28;20048;-67
2023/10/29 01:40:45;;;;;;;4.97;1.67;;;;;;;12.76;100.00;98901.34;5095980;28;20059;-67
2023/10/29 01:43:34;;;;;;;3.10;1.30;;;;;;;12.77;100.00;98891.19;5098132;28;20047;-67
2023/10/29 01:46:22;;;;;;;6.35;1.50;;;;;;;12.78;100.00;98888.16;5105759;28;20043;-62
2023/10/29 01:49:10;;;;;;;3.40;1.75;;;;;;;12.81;100.00;98874.97;5118081;28;20594;-64
2023/10/29 01:51:58;;;;;;;4.63;1.98;;;;;;;12.79;100.00;98873.38;5112614;28;20052;-63
2023/10/29 01:54:46;;;;;;;2.55;1.33;;;;;;;12.78;100.00;98866.28;5113212;28;20089;-67
2023/10/29 01:57:36;;;;;;;2.97;1.55;;;;;;;12.79;100.00;98867.91;5112252;28;20035;-61
2023/10/29 02:00:24;;;;;;;3.45;1.73;;;;;;;12.82;100.00;98860.97;5101201;28;20044;-63
2023/10/29 02:03:12;;;;;;;3.70;1.88;;;;;;;12.82;100.00;98865.63;5128730;28;20083;-67
2023/10/29 02:06:01;;;;;;;2.90;1.55;;;;;;;12.82;100.00;98868.34;5113989;28;20404;-67
2023/10/29 02:08:49;;;;;;;2.80;1.60;;;;;;;12.81;100.00;98870.28;5112899;28;20483;-67
2023/10/29 02:11:40;;;;;;;4.35;1.67;;;;;;;12.81;100.00;98874.97;5104756;28;20134;-67
2023/10/29 02:14:32;;;;;;;3.17;1.55;;;;;;;12.78;100.00;98866.28;5101238;28;20056;-66
2023/10/29 02:17:24;;;;;;;2.15;1.50;;;;;;;12.79;100.00;98878.84;5086518;28;20432;-67
2023/10/29 02:20:12;;;;;;;4.88;1.38;;;;;;;12.80;100.00;98882.38;5114401;28;20071;-67
2023/10/29 02:23:01;;;;;;;3.05;1.55;;;;;;;12.82;100.00;98871.91;5114466;28;20180;-67
2023/10/29 02:25:49;;;;;;;3.72;1.90;;;;;;;12.81;100.00;98869.50;5101793;28;20114;-67
2023/10/29 02:28:37;;;;;;;3.42;1.58;;;;;;;12.79;100.00;98873.38;5101479;28;20046;-67
2023/10/29 02:31:25;;;;;;;7.40;2.05;;;;;;;12.80;100.00;98874.16;5081503;28;20126;-67
2023/10/29 02:34:13;;;;;;;2.85;1.48;;;;;;;12.83;100.00;98867.25;5113635;28;20044;-67
2023/10/29 02:37:01;;;;;;;3.38;1.63;;;;;;;12.86;100.00;98877.50;5115238;28;20101;-67
2023/10/29 02:39:49;;;;;;;4.15;1.65;;;;;;;12.86;100.00;98866.56;5099709;28;20043;-67
2023/10/29 02:42:37;;;;;;;3.35;1.55;;;;;;;12.88;100.00;98876.03;5080123;28;20055;-67
2023/10/29 02:45:25;;;;;;;1.67;1.17;;;;;;;12.85;100.00;98878.63;5085704;28;20415;-67
2023/10/29 02:48:13;;;;;;;3.30;1.73;;;;;;;12.84;100.00;98875.09;5100694;27;20054;-67
2023/10/29 02:51:02;;;;;;;2.55;1.35;;;;;;;12.83;100.00;98872.69;5086476;28;20039;-67
2023/10/29 02:53:50;;;;;;;2.88;1.38;;;;;;;12.83;100.00;98861.78;5113825;28;20419;-67
2023/10/29 02:56:38;;;;;;;2.63;1.50;;;;;;;12.83;100.00;98850.84;5087814;28;20123;-67
2023/10/29 02:59:26;;;;;;;1.80;1.23;;;;;;;12.83;100.00;98867.25;5100166;28;20510;-67
2023/10/29 03:02:14;;;;;;;4.80;1.63;;;;;;;12.85;100.00;98854.03;5098976;28;20043;-67
2023/10/29 03:05:03;;;;;;;3.13;1.58;;;;;;;12.88;100.00;98864.31;5079154;28;20048;-68
2023/10/29 03:07:51;;;;;;;2.13;1.52;;;;;;;12.94;100.00;98849.28;5101431;28;20071;-68
2023/10/29 03:10:39;;;;;;;3.25;1.58;;;;;;;12.93;100.00;98839.50;5114449;28;20446;-66
2023/10/29 03:13:27;;;;;;;2.45;1.35;;;;;;;12.96;100.00;98856.06;5113527;28;20040;-67
2023/10/29 03:16:15;;;;;;;3.03;1.40;;;;;;;12.97;100.00;98843.19;5113436;28;20044;-67
2023/10/29 03:19:03;;;;;;;4.80;1.42;;;;;;;12.98;100.00;98842.03;5093387;28;20384;-67
2023/10/29 03:21:51;;;;;;;2.72;1.42;;;;;;;12.98;100.00;98853.78;5111595;28;20046;-66
2023/10/29 03:24:39;;;;;;;4.10;1.50;;;;;;;13.02;100.00;98859.38;5114181;28;20040;-66
2023/10/29 03:27:28;;;;;;;2.72;1.50;;;;;;;13.04;100.00;98857.13;5100071;28;20044;-68
2023/10/29 03:30:16;;;;;;;2.53;1.50;;;;;;;13.05;100.00;98855.19;5098957;28;20044;-65
2023/10/29 03:33:04;;;;;;;1.75;1.27;;;;;;;13.04;100.00;98856.34;5112649;28;20079;-67
2023/10/29 03:35:53;;;;;;;1.85;1.13;;;;;;;13.04;100.00;98854.38;5100802;28;20487;-66
2023/10/29 03:38:41;;;;;;;1.58;1.30;;;;;;;13.07;100.00;98861.13;5115810;28;20048;-66
2023/10/29 03:41:29;;;;;;;2.45;1.27;;;;;;;13.11;100.00;98857.41;5100034;28;20039;-66
2023/10/29 03:44:17;;;;;;;2.92;1.33;;;;;;;13.14;100.00;98867.66;5108217;28;20047;-66
2023/10/29 03:47:06;;;;;;;2.65;1.17;;;;;;;13.14;100.00;98862.19;5103396;28;20509;-67
2023/10/29 03:49:55;;;;;;;5.13;2.08;;;;;;;13.13;100.00;98860.59;5116841;28;20043;-67
2023/10/29 03:52:43;;;;;;;3.17;1.50;;;;;;;13.09;100.00;98859.66;5105721;28;20369;-67
2023/10/29 03:55:31;;;;;;;3.00;1.25;;;;;;;13.07;100.00;98850.19;5114810;28;20054;-67
2023/10/29 03:58:21;;;;;;;11.30;1.67;;;;;;;13.04;100.00;98857.13;5072624;28;20057;-66
2023/10/29 04:01:13;;;;;;;3.25;1.50;;;;;;;13.02;100.00;98853.91;5114533;28;20753;-67
2023/10/29 04:04:03;;;;;;;3.08;1.27;;;;;;;12.98;100.00;98861.97;5069673;28;20043;-66
2023/10/29 04:06:51;;;;;;;5.35;1.45;;;;;;;12.95;100.00;98859.91;5097218;28;20507;-68
2023/10/29 04:09:39;;;;;;;1.98;1.08;;;;;;;12.96;100.00;98856.06;5062797;28;20043;-67
2023/10/29 04:12:28;;;;;;;3.13;1.30;;;;;;;12.97;100.00;98867.78;5096571;28;20047;-67
2023/10/29 04:15:16;;;;;;;3.38;2.00;;;;;;;12.95;100.00;98859.91;5071080;28;20055;-67
2023/10/29 04:18:04;;;;;;;2.35;1.33;;;;;;;12.96;100.00;98852.50;5113986;28;20162;-67
2023/10/29 04:20:52;;;;;;;1.20;1.10;;;;;;;12.94;100.00;98863.78;5106811;28;20088;-67
2023/10/29 04:23:40;;;;;;;4.05;1.55;;;;;;;12.95;100.00;98864.59;5099088;28;20048;-66
2023/10/29 04:26:28;;;;;;;2.47;1.50;;;;;;;12.93;100.00;98872.31;5098356;28;20040;-68
2023/10/29 04:29:16;;;;;;;6.95;1.77;;;;;;;12.96;100.00;98888.03;5099587;28;20047;-67
2023/10/29 04:32:05;;;;;;;4.32;2.13;;;;;;;13.07;100.00;98874.78;5096504;28;20437;-67
2023/10/29 04:34:53;;;;;;;3.25;1.52;;;;;;;13.19;100.00;98883.06;5087211;28;20411;-67
2023/10/29 04:37:41;;;;;;;5.45;1.92;;;;;;;13.19;100.00;98870.19;5103089;28;20046;-68
2023/10/29 04:40:29;;;;;;;3.28;1.77;;;;;;;13.31;100.00;98874.97;5091574;28;20062;-68
2023/10/29 04:43:17;;;;;;;5.25;1.50;;;;;;;13.17;100.00;98882.59;5122621;28;20100;-68
2023/10/29 04:46:05;;;;;;;2.10;1.27;;;;;;;13.07;100.00;98883.78;5123549;28;20067;-67
2023/10/29 04:48:53;;;;;;;2.00;1.27;;;;;;;13.04;100.00;98878.19;5099038;28;20039;-68
2023/10/29 04:51:41;;;;;;;4.75;1.65;;;;;;;13.00;100.00;98878.06;5099107;28;20176;-68
2023/10/29 04:54:29;;;;;;;5.75;1.92;;;;;;;12.98;100.00;98883.03;5100246;28;20134;-68
2023/10/29 04:57:20;;;;;;;3.03;1.70;;;;;;;12.95;100.00;98892.72;5082480;28;20048;-68
2023/10/29 05:00:09;;;;;;;3.53;1.50;;;;;;;12.93;100.00;98884.03;5094979;28;20040;-66
2023/10/29 05:02:57;;;;;;;2.53;1.35;;;;;;;12.93;100.00;98883.25;5081441;28;20044;-67
2023/10/29 05:05:45;;;;;;;3.45;1.38;;;;;;;13.01;100.00;98882.38;5092423;28;20052;-65
2023/10/29 05:08:36;;;;;;;3.80;1.85;;;;;;;13.16;100.00;98886.47;5098230;28;20159;-66
2023/10/29 05:11:25;;;;;;;4.38;1.60;;;;;;;13.11;100.00;98901.16;5115271;27;20051;-66
2023/10/29 05:14:13;;;;;;;7.20;1.63;;;;;;;13.09;100.00;98892.47;5099193;28;20187;-64
2023/10/29 05:17:02;;;;;;;5.43;1.85;;;;;;;13.04;100.00;98895.41;5112250;28;20044;-66
2023/10/29 05:19:50;;;;;;;4.25;1.98;;;;;;;13.08;100.00;98912.72;5086280;28;20043;-65
2023/10/29 05:22:39;;;;;;;4.13;1.90;;;;;;;13.02;100.00;98935.94;5083986;28;20040;-66
2023/10/29 05:25:27;;;;;;;6.10;1.88;;;;;;;12.99;100.00;98925.66;5098687;28;20126;-65
2023/10/29 05:28:14;;;;;;;10.25;2.55;;;;;;;12.94;100.00;98928.56;5085176;28;20154;-65
2023/10/29 05:31:03;;;;;;;9.02;2.45;;;;;;;12.87;100.00;98928.28;5095960;28;20426;-66
2023/10/29 05:33:51;;;;;;;3.13;1.80;;;;;;;12.85;100.00;98952.44;5083913;28;20046;-66
2023/10/29 05:36:39;;;;;;;5.10;1.80;;;;;;;12.88;100.00;98924.44;5097607;28;20474;-66
2023/10/29 05:39:27;;;;;;;4.28;1.80;;;;;;;12.92;100.00;98919.91;5126247;28;20121;-66
2023/10/29 05:42:15;;;;;;;7.22;2.67;;;;;;;13.14;100.00;98919.63;5097278;28;20516;-65
2023/10/29 05:45:03;;;;;;;5.65;2.10;;;;;;;13.13;100.00;98937.16;5082925;28;20122;-65
2023/10/29 05:47:51;;;;;;;9.90;2.53;;;;;;;13.22;100.00;98940.63;5113632;28;20613;-66
2023/10/29 05:50:40;;;;;;;4.95;1.90;;;;;;;13.22;100.00;98937.88;5115287;28;20388;-66
2023/10/29 05:53:28;;;;;;;5.38;2.05;;;;;;;13.12;100.00;98945.69;5079502;28;20036;-65
2023/10/29 05:56:18;;;;;;;5.68;1.85;;;;;;;13.01;100.00;98950.72;5094471;28;20133;-66
2023/10/29 05:59:06;;;;;;;3.33;1.80;;;;;;;12.86;100.00;98954.03;5095432;28;20067;-65
2023/10/29 06:01:54;;;;;;;4.50;1.80;;;;;;;12.91;100.00;98967.50;5106569;28;20075;-66
2023/10/29 06:04:42;;;;;;;6.18;1.92;;;;;;;12.87;100.00;98975.56;5116982;28;20055;-65
2023/10/29 06:07:31;;;;;;;5.95;2.05;;;;;;;12.82;100.00;98985.88;5114639;28;20039;-65
2023/10/29 06:10:21;;;;;;;5.03;2.15;;;;;;;12.78;100.00;98997.47;5116079;27;20055;-66
2023/10/29 06:13:09;;;;;;;5.90;2.08;;;;;;;12.81;100.00;99006.94;5113365;28;20035;-64
2023/10/29 06:15:58;;;;;;;7.40;2.20;;;;;;;12.80;100.00;98997.16;5116833;28;20032;-64
2023/10/29 06:18:46;;;;;;;5.30;2.00;;;;;;;12.75;100.00;99002.81;5104951;28;20115;-63
2023/10/29 06:21:34;;;;;;;4.38;1.63;;;;;;;12.78;100.00;99018.53;5124275;28;20044;-63
2023/10/29 06:24:23;;;;;;;3.35;1.42;;;;;;;12.81;100.00;99025.28;4413360;28;10000395;-65
2023/10/29 06:27:11;;;;;;;7.03;1.90;;;;;;;12.78;100.00;99027.53;5100273;28;20043;-63
2023/10/29 06:29:59;;;;;;;6.07;2.10;;;;;;;12.74;100.00;99037.50;5111686;28;20039;-64
2023/10/29 06:32:48;;;;;;;6.38;1.80;;;;;;;12.73;100.00;99027.72;5070618;28;20050;-65
2023/10/29 06:35:36;;;;;;;3.92;1.77;;;;;;;12.72;100.00;99039.78;5099996;28;20040;-65
2023/10/29 06:38:24;;;;;;;7.25;1.90;;;;;;;12.67;100.00;99037.19;5111551;28;20063;-65
2023/10/29 06:41:13;;;;;;;10.52;2.60;;;;;;;12.73;100.00;99038.63;5085036;28;20450;-64
2023/10/29 06:44:01;;;;;;;5.88;2.25;;;;;;;12.78;100.00;99030.25;5084110;28;20402;-64
2023/10/29 06:46:49;;;;;;;7.90;2.17;;;;;;;12.82;100.00;99041.34;5112033;28;20044;-65
2023/10/29 06:49:37;;;;;;;7.80;2.95;;;;;;;12.77;100.00;99047.81;5112357;28;20039;-65
2023/10/29 06:52:25;;;;;;;7.55;2.33;;;;;;;12.74;100.00;99051.16;5096538;28;20136;-65
2023/10/29 06:55:13;;;;;;;7.20;2.30;;;;;;;12.68;100.00;99057.94;5112851;28;20044;-65
2023/10/29 06:58:01;;;;;;;6.47;2.53;;;;;;;12.68;100.00;99065.34;5071470;28;20052;-65
2023/10/29 07:00:50;;;;;;;8.25;2.53;;;;;;;12.71;100.00;99079.16;5095221;28;20039;-65
2023/10/29 07:03:38;;;;;;;8.27;2.10;;;;;;;12.64;100.00;99083.50;5112866;28;20525;-65
2023/10/29 07:06:26;;;;;;;8.35;2.22;;;;;;;12.61;100.00;99079.50;5112265;28;20077;-65
2023/10/29 07:09:15;;;;;;;8.98;2.40;;;;;;;12.63;100.00;99087.34;5111977;28;20052;-65
2023/10/29 07:12:04;;;;;;;8.27;2.63;;;;;;;12.64;100.00;99092.50;5095905;28;20043;-65
2023/10/29 07:14:52;;;;;;;6.25;2.13;;;;;;;12.66;100.00;99098.44;5083454;28;20047;-64
2023/10/29 07:17:40;;;;;;;5.25;2.22;;;;;;;12.71;100.00;99105.69;5096027;28;20047;-65
2023/10/29 07:20:28;;;;;;;9.20;2.35;;;;;;;12.66;100.00;99114.84;5096149;28;20048;-65
2023/10/29 07:23:16;;;;;;;6.55;2.17;;;;;;;12.65;100.00;99113.25;5095218;28;20499;-65
2023/10/29 07:26:04;;;;;;;6.97;2.35;;;;;;;12.71;100.00;99128.34;5111900;28;20168;-65
2023/10/29 07:28:52;;;;;;;7.25;2.25;;;;;;;12.69;100.00;99111.47;5096958;28;20051;-66
2023/10/29 07:31:40;;;;;;;12.65;3.03;;;;;;;12.56;100.00;99120.66;5094834;28;20814;-66
2023/10/29 07:34:28;;;;;;;9.95;2.72;;;;;;;12.51;100.00;99126.28;5110749;28;20051;-65
2023/10/29 07:37:17;;;;;;;8.10;2.50;;;;;;;12.49;100.00;99131.25;5083708;28;20062;-65
2023/10/29 07:40:06;;;;;;;13.38;2.83;;;;;;;12.47;100.00;99138.97;5066672;28;20132;-66
2023/10/29 07:42:54;;;;;;;6.03;1.90;;;;;;;12.58;100.00;99141.06;5071320;28;20553;-67
2023/10/29 07:45:43;;;;;;;9.90;2.60;;;;;;;12.60;100.00;99137.19;5076851;28;20090;-66
2023/10/29 07:48:32;;;;;;;12.75;2.80;;;;;;;12.65;100.00;99140.56;5076834;28;20048;-66
2023/10/29 07:51:22;;;;;;;11.20;2.42;;;;;;;12.76;100.00;99152.75;5096203;28;20059;-65
2023/10/29 07:54:12;;;;;;;10.82;2.67;;;;;;;12.74;100.00;99151.47;5113419;28;20123;-65
2023/10/29 07:57:00;;;;;;;8.10;2.60;;;;;;;12.73;100.00;99153.41;5085358;28;20541;-65
2023/10/29 07:59:48;;;;;;;7.45;1.95;;;;;;;12.81;100.00;99145.53;5113611;28;20059;-65
2023/10/29 08:02:37;;;;;;;7.53;2.35;;;;;;;12.90;100.00;99152.59;5105984;28;20507;-65
2023/10/29 08:05:25;;;;;;;10.60;2.70;;;;;;;12.92;100.00;99161.28;5111353;28;20052;-65
2023/10/29 08:08:13;;;;;;;10.02;3.00;;;;;;;12.89;100.00;99159.19;5098884;28;20043;-65
2023/10/29 08:11:01;;;;;;;12.40;3.13;;;;;;;12.95;100.00;99159.81;5113294;28;20073;-65
2023/10/29 08:13:50;;;;;;;9.07;2.83;;;;;;;12.90;100.00;99169.00;5077167;28;20135;-65
2023/10/29 08:16:39;;;;;;;6.10;2.45;;;;;;;12.93;100.00;99179.25;5101000;28;20128;-65
2023/10/29 08:19:27;;;;;;;10.88;3.05;;;;;;;12.89;100.00;99183.78;5098642;28;20043;-66
2023/10/29 08:22:15;;;;;;;13.85;3.10;;;;;;;12.93;100.00;99189.41;5089485;28;20055;-67
2023/10/29 08:25:04;;;;;;;10.00;3.33;;;;;;;13.01;100.00;99185.84;5112948;27;20051;-66
2023/10/29 08:27:52;;;;;;;12.30;2.80;;;;;;;13.05;100.00;99192.28;5110703;28;20052;-65
2023/10/29 08:30:40;;;;;;;11.32;3.40;;;;;;;13.09;100.00;99193.25;5098043;28;20564;-65
2023/10/29 08:33:28;;;;;;;9.90;3.55;;;;;;;13.30;100.00;99206.25;5098681;28;20128;-66
2023/10/29 08:36:17;;;;;;;12.15;3.25;;;;;;;13.24;100.00;99205.59;5113938;28;20114;-66
2023/10/29 08:39:05;;;;;;;11.30;2.83;;;;;;;13.15;100.00;99208.34;5097450;28;20122;-65
2023/10/29 08:41:53;;;;;;;8.25;2.75;;;;;;;13.09;100.00;99204.19;5069641;28;20098;-67
2023/10/29 08:44:41;;;;;;;9.68;2.90;;;;;;;13.18;100.00;99213.19;5087323;28;20062;-65
2023/10/29 08:47:30;;;;;;;6.65;2.53;;;;;;;13.26;100.00;99216.22;5098379;28;20043;-68
2023/10/29 08:50:18;;;;;;;11.77;2.80;;;;;;;13.18;100.00;99206.88;5096271;28;20075;-65
2023/10/29 08:53:06;;;;;;;16.13;3.42;;;;;;;13.20;100.00;99212.84;5112648;28;20402;-66
2023/10/29 08:55:54;;;;;;;15.00;3.30;;;;;;;13.26;100.00;99227.16;5112727;28;20051;-66
2023/10/29 08:58:42;;;;;;;9.15;2.80;;;;;;;13.21;100.00;99239.06;5097711;28;20124;-65
2023/10/29 09:01:33;;;;;;;10.27;2.65;;;;;;;13.22;100.00;99240.66;5084603;28;20059;-65
2023/10/29 09:04:22;;;;;;;8.48;2.88;;;;;;;13.23;100.00;99242.28;5111806;28;20047;-66
2023/10/29 09:07:10;;;;;;;11.82;3.28;;;;;;;13.39;100.00;99245.31;5083802;28;20066;-67
2023/10/29 09:09:58;;;;;;;10.50;3.35;;;;;;;13.41;100.00;99256.75;5113617;28;20109;-65
2023/10/29 09:12:47;;;;;;;9.23;2.97;;;;;;;13.34;100.00;99259.97;5112984;28;20050;-65
2023/10/29 09:15:35;;;;;;;11.23;2.88;;;;;;;13.56;100.00;99277.31;5114098;28;20051;-65
2023/10/29 09:18:23;;;;;;;10.45;2.85;;;;;;;13.53;100.00;99289.72;5097477;28;20084;-65
2023/10/29 09:21:11;;;;;;;10.95;3.42;;;;;;;13.48;100.00;99281.69;5097919;28;20044;-65
2023/10/29 09:24:00;;;;;;;9.02;3.42;;;;;;;13.66;100.00;99287.09;5097242;28;20058;-65
2023/10/29 09:26:48;;;;;;;8.95;2.88;;;;;;;13.68;100.00;99290.31;5083718;28;20051;-65
2023/10/29 09:29:36;;;;;;;12.70;3.17;;;;;;;13.64;100.00;99303.88;5113634;28;20126;-65
2023/10/29 09:32:24;;;;;;;11.32;3.38;;;;;;;13.63;100.00;99297.56;5098390;28;20044;-64
2023/10/29 09:35:13;;;;;;;13.00;2.75;;;;;;;13.63;100.00;99294.03;5113997;28;20128;-65
2023/10/29 09:38:01;;;;;;;10.52;3.03;;;;;;;13.61;100.00;99297.13;5113698;28;20122;-65
2023/10/29 09:40:52;;;;;;;9.73;2.90;;;;;;;13.64;100.00;99287.47;5109321;28;20051;-65
2023/10/29 09:43:46;;;;;;;;;;;;;;;13.77;100.00;99293.84;5126041;28;20096;-65
2023/10/29 09:46:37;;;;;;;11.75;2.80;;;;;;;13.61;100.00;99293.56;5128415;28;19926;-66
2023/10/29 09:49:25;;;;;;;7.78;2.65;;;;;;;13.73;100.00;99312.84;5123510;28;20522;-66
2023/10/29 09:52:14;;;;;;;17.00;3.15;;;;;;;13.77;100.00;99299.31;5105497;28;20115;-65
2023/10/29 09:55:04;;;;;;;10.52;3.22;;;;;;;13.68;100.00;99290.31;5116095;28;20043;-66
2023/10/29 09:57:52;;;;;;;8.15;2.28;;;;;;;13.81;100.00;99289.34;5097388;28;20054;-66
2023/10/29 10:00:41;;;;;;;9.43;3.08;;;;;;;13.76;100.00;99292.25;5099085;28;20123;-65
2023/10/29 10:03:29;;;;;;;9.75;3.15;;;;;;;13.80;100.00;99298.66;5113356;28;20062;-65
2023/10/29 10:06:18;;;;;;;8.15;2.65;;;;;;;13.78;100.00;99296.28;5098878;28;20044;-65
2023/10/29 10:09:10;;;;;;;10.05;2.45;;;;;;;13.70;100.00;99282.59;5098100;28;20071;-65
2023/10/29 10:12:04;;;;;;;7.70;2.80;;;;;;;13.74;100.00;99256.19;5111909;28;20043;-65
2023/10/29 10:14:53;;;;;;;8.50;2.60;;;;;;;13.75;100.00;99266.78;5111725;28;20085;-65
2023/10/29 10:17:54;;;;;;;11.48;2.90;;;;;;;13.71;100.00;99265.03;5084286;28;20055;-65
2023/10/29 10:20:42;;;;;;;9.25;2.47;;;;;;;13.66;100.00;99271.47;5084064;28;20051;-65
2023/10/29 10:23:46;;;;;;;10.68;3.10;;;;;;;13.60;100.00;99278.28;5083755;28;20047;-65
2023/10/29 10:26:36;;;;;;;8.35;2.90;;;;;;;13.61;100.00;99277.13;5112432;28;20047;-65
2023/10/29 10:29:33;;;;;;;10.68;2.70;;;;;;;13.53;100.00;99275.25;5082966;28;20048;-65
2023/10/29 10:32:24;;;;;;;10.95;3.03;;;;;;;13.51;100.00;99267.34;5111702;28;20126;-65
2023/10/29 10:35:12;;;;;;;8.65;2.83;;;;;;;13.51;100.00;99270.09;5108829;28;20051;-66
2023/10/29 10:38:03;;;;;;;11.65;3.20;;;;;;;13.53;100.00;99264.28;5097161;28;20043;-64
2023/10/29 10:41:01;;;;;;;14.70;3.10;;;;;;;13.49;100.00;99272.34;5127356;28;20040;-66
2023/10/29 10:44:12;;;;;;;8.90;3.22;;;;;;;13.58;100.00;99281.34;5105110;28;20043;-65
2023/10/29 10:47:03;;;;;;;8.85;2.78;;;;;;;13.58;100.00;99284.06;5133465;28;20044;-62
2023/10/29 10:49:51;;;;;;;13.15;2.90;;;;;;;13.64;100.00;99290.19;5091588;28;20039;-66
2023/10/29 10:52:39;;;;;;;12.10;3.45;;;;;;;13.68;100.00;99301.28;5126962;27;20067;-61
2023/10/29 10:55:29;;;;;;;7.53;2.67;;;;;;;13.66;100.00;99298.06;5109328;28;20054;-57
2023/10/29 10:58:37;;;;;;;10.23;2.90;;;;;;;13.64;100.00;99307.41;5133405;28;20085;-64
2023/10/29 11:01:27;;;;;;;7.18;2.25;;;;;;;13.68;100.00;99312.22;5118966;28;20058;-65
2023/10/29 11:04:15;;;;;;;5.82;2.30;;;;;;;13.71;100.00;99303.34;5076741;28;20634;-65
2023/10/29 11:07:04;;;;;;;9.85;2.60;;;;;;;13.78;100.00;99303.66;5118170;27;20274;-66
2023/10/29 11:09:52;;;;;;;8.73;2.47;;;;;;;13.67;100.00;99303.22;5101983;28;20047;-66
2023/10/29 11:12:41;;;;;;;12.20;2.67;;;;;;;13.64;100.00;99301.94;5115366;28;20153;-66
2023/10/29 11:15:29;;;;;;;9.80;2.58;;;;;;;13.66;100.00;99293.38;5057702;28;20125;-66
2023/10/29 11:18:31;;;;;;;9.23;2.85;;;;;;;13.69;100.00;99302.91;5096561;28;20044;-65
2023/10/29 11:21:39;;;;;;;6.68;2.55;;;;;;;13.75;100.00;99302.38;5080261;28;20492;-65
2023/10/29 11:24:27;;;;;;;8.90;2.65;;;;;;;13.76;100.00;99290.31;5107009;28;20047;-65
2023/10/29 11:27:33;;;;;;;7.53;2.40;;;;;;;13.72;100.00;99278.41;5115273;28;20112;-63
2023/10/29 11:30:23;;;;;;;11.30;3.00;;;;;;;13.65;100.00;99275.38;5114933;28;20047;-64
2023/10/29 11:33:19;;;;;;;8.00;2.40;;;;;;;13.66;100.00;99267.94;5099411;28;20051;-64
2023/10/29 11:36:35;;;;;;;8.63;2.65;;;;;;;13.69;100.00;99262.63;5099404;28;20539;-65
2023/10/29 11:39:31;;;;;;;8.48;2.38;;;;;;;13.66;100.00;99257.00;5114483;28;20052;-66
2023/10/29 11:42:25;;;;;;;11.85;2.50;;;;;;;13.62;100.00;99249.47;5098845;28;20062;-66
2023/10/29 11:45:34;;;;;;;10.05;2.80;;;;;;;13.58;100.00;99240.28;5099366;28;20191;-65
2023/10/29 11:48:22;;;;;;;8.55;2.38;;;;;;;13.61;100.00;99236.91;5113052;28;20048;-65
2023/10/29 11:51:10;;;;;;;10.73;2.97;;;;;;;13.60;100.00;99232.56;5071178;28;20130;-66
2023/10/29 11:54:02;;;;;;;9.32;2.63;;;;;;;13.63;100.00;99217.41;5113893;28;20051;-65
2023/10/29 11:56:51;;;;;;;10.45;2.45;;;;;;;13.67;100.00;99207.41;5086412;28;20135;-65
2023/10/29 11:59:56;;;;;;;13.18;3.35;;;;;;;13.68;100.00;99202.75;5100498;28;20052;-66
2023/10/29 12:02:45;;;;;;;9.75;2.92;;;;;;;13.73;100.00;99202.56;5098615;28;20051;-66
2023/10/29 12:05:33;;;;;;;8.57;2.30;;;;;;;13.75;100.00;99200.28;5114310;28;20123;-65
2023/10/29 12:08:21;;;;;;;11.38;2.90;;;;;;;13.79;100.00;99201.25;5114524;28;20445;-64
2023/10/29 12:11:09;;;;;;;7.35;2.40;;;;;;;13.83;100.00;99194.78;5084790;28;20035;-65
2023/10/29 12:13:57;;;;;;;9.45;2.83;;;;;;;13.77;100.00;99193.34;5085668;28;20078;-63
2023/10/29 12:16:45;;;;;;;10.70;2.92;;;;;;;13.74;100.00;99193.22;5100810;28;20416;-64
2023/10/29 12:19:38;;;;;;;11.57;2.83;;;;;;;13.78;100.00;99216.06;5099456;28;20067;-65
2023/10/29 12:22:27;;;;;;;8.50;2.58;;;;;;;13.82;100.00;99208.81;5098418;28;20521;-65
2023/10/29 12:25:16;;;;;;;8.23;2.70;;;;;;;13.79;100.00;99215.75;5098678;28;20040;-65
2023/10/29 12:28:04;;;;;;;10.85;2.83;;;;;;;13.83;100.00;99232.31;5114644;28;20048;-65
2023/10/29 12:30:52;;;;;;;9.55;2.92;;;;;;;13.89;100.00;99203.63;5085420;28;20043;-65
2023/10/29 12:33:40;;;;;;;10.32;2.75;;;;;;;13.83;100.00;99200.28;5113743;28;20058;-65
2023/10/29 12:36:29;;;;;;;9.13;2.80;;;;;;;13.89;100.00;99198.13;5113441;28;20046;-65
2023/10/29 12:39:17;;;;;;;8.13;2.15;;;;;;;13.88;100.00;99212.16;5084756;28;20122;-65
2023/10/29 12:42:05;;;;;;;8.85;2.72;;;;;;;13.82;100.00;99212.34;5089118;28;20047;-65
2023/10/29 12:44:54;;;;;;;6.72;2.75;;;;;;;13.83;100.00;99219.44;5099613;28;20411;-65
2023/10/29 12:47:43;;;;;;;8.00;2.25;;;;;;;13.83;100.00;99226.84;5100115;28;20046;-65
2023/10/29 12:50:47;;;;;;;9.23;2.67;;;;;;;13.87;100.00;99225.03;5114371;28;20062;-66
2023/10/29 12:53:35;;;;;;;10.15;3.30;;;;;;;13.98;100.00;99217.28;5097973;28;20047;-67
2023/10/29 12:56:23;;;;;;;7.18;2.00;;;;;;;13.95;100.00;99224.22;5085357;28;20043;-66
2023/10/29 12:59:11;;;;;;;12.27;2.65;;;;;;;13.86;100.00;99215.22;5071868;28;20135;-65
2023/10/29 13:02:07;;;;;;;11.50;3.08;;;;;;;13.81;100.00;99209.94;5084720;28;20111;-65
2023/10/29 13:04:55;;;;;;;6.53;2.33;;;;;;;13.82;100.00;99225.22;5097662;28;20062;-65
2023/10/29 13:07:43;;;;;;;10.50;2.70;;;;;;;13.81;100.00;99234.59;5097412;28;20047;-66